sensor_id;sensor_type;location;lat;lon;timestamp;temperature;humidity
50738;DHT22;36703;48.154;17.126;2023-05-14T00:00:46;16.80;56.30
50738;DHT22;36703;48.154;17.126;2023-05-14T00:04:48;16.80;56.30
50738;DHT22;36703;48.154;17.126;2023-05-14T00:08:49;16.80;56.30
50738;DHT22;36703;48.154;17.126;2023-05-14T00:12:51;16.80;56.30
50738;DHT22;36703;48.154;17.126;2023-05-14T00:16:52;16.80;56.20
50738;DHT22;36703;48.154;17.126;2023-05-14T00:20:54;16.70;56.20
50738;DHT22;36703;48.154;17.126;2023-05-14T00:24:56;16.70;56.30
50738;DHT22;36703;48.154;17.126;2023-05-14T00:28:57;16.80;56.30
50738;DHT22;36703;48.154;17.126;2023-05-14T00:32:59;16.70;56.20
50738;DHT22;36703;48.154;17.126;2023-05-14T00:37:01;16.70;56.20
50738;DHT22;36703;48.154;17.126;2023-05-14T00:41:02;16.70;56.10
50738;DHT22;36703;48.154;17.126;2023-05-14T00:45:05;16.70;56.10
50738;DHT22;36703;48.154;17.126;2023-05-14T00:49:07;16.70;56.10
50738;DHT22;36703;48.154;17.126;2023-05-14T00:53:09;16.70;56.10
50738;DHT22;36703;48.154;17.126;2023-05-14T00:57:12;16.70;56.00
50738;DHT22;36703;48.154;17.126;2023-05-14T01:01:13;16.70;56.10
50738;DHT22;36703;48.154;17.126;2023-05-14T01:05:15;16.60;56.00
50738;DHT22;36703;48.154;17.126;2023-05-14T01:14:02;16.70;55.80
50738;DHT22;36703;48.154;17.126;2023-05-14T01:18:17;16.60;55.80
50738;DHT22;36703;48.154;17.126;2023-05-14T01:22:19;16.60;55.70
50738;DHT22;36703;48.154;17.126;2023-05-14T01:26:21;16.50;55.60
50738;DHT22;36703;48.154;17.126;2023-05-14T01:30:39;16.50;55.60
50738;DHT22;36703;48.154;17.126;2023-05-14T01:34:46;16.50;55.40
50738;DHT22;36703;48.154;17.126;2023-05-14T01:38:49;16.50;55.40
50738;DHT22;36703;48.154;17.126;2023-05-14T01:42:52;16.40;55.40
50738;DHT22;36703;48.154;17.126;2023-05-14T01:46:54;16.40;55.30
50738;DHT22;36703;48.154;17.126;2023-05-14T01:50:55;16.50;55.40
50738;DHT22;36703;48.154;17.126;2023-05-14T01:54:57;16.50;55.20
50738;DHT22;36703;48.154;17.126;2023-05-14T01:59:00;16.40;55.20
50738;DHT22;36703;48.154;17.126;2023-05-14T02:03:01;16.40;55.20
50738;DHT22;36703;48.154;17.126;2023-05-14T02:07:03;16.40;55.20
50738;DHT22;36703;48.154;17.126;2023-05-14T02:11:05;16.30;55.10
50738;DHT22;36703;48.154;17.126;2023-05-14T02:15:07;16.30;55.10
50738;DHT22;36703;48.154;17.126;2023-05-14T02:19:11;16.20;55.10
50738;DHT22;36703;48.154;17.126;2023-05-14T02:23:12;16.30;55.00
50738;DHT22;36703;48.154;17.126;2023-05-14T02:27:14;16.30;54.80
50738;DHT22;36703;48.154;17.126;2023-05-14T02:31:15;16.20;54.80
50738;DHT22;36703;48.154;17.126;2023-05-14T02:35:19;16.20;54.80
50738;DHT22;36703;48.154;17.126;2023-05-14T02:39:21;16.20;55.40
50738;DHT22;36703;48.154;17.126;2023-05-14T02:43:23;16.10;54.70
50738;DHT22;36703;48.154;17.126;2023-05-14T02:47:26;16.10;54.70
50738;DHT22;36703;48.154;17.126;2023-05-14T02:51:28;16.00;54.70
50738;DHT22;36703;48.154;17.126;2023-05-14T02:55:29;16.10;54.70
50738;DHT22;36703;48.154;17.126;2023-05-14T02:59:31;16.10;54.70
50738;DHT22;36703;48.154;17.126;2023-05-14T03:03:34;16.40;54.80
50738;DHT22;36703;48.154;17.126;2023-05-14T03:07:35;16.10;54.60
50738;DHT22;36703;48.154;17.126;2023-05-14T03:11:37;16.10;54.60
50738;DHT22;36703;48.154;17.126;2023-05-14T03:15:39;16.00;54.50
50738;DHT22;36703;48.154;17.126;2023-05-14T03:19:40;16.10;54.50
50738;DHT22;36703;48.154;17.126;2023-05-14T03:23:42;15.80;54.30
50738;DHT22;36703;48.154;17.126;2023-05-14T03:27:43;16.10;54.40
50738;DHT22;36703;48.154;17.126;2023-05-14T03:31:45;16.10;54.40
50738;DHT22;36703;48.154;17.126;2023-05-14T03:35:47;16.10;54.30
50738;DHT22;36703;48.154;17.126;2023-05-14T03:39:48;16.10;54.40
50738;DHT22;36703;48.154;17.126;2023-05-14T03:43:50;16.10;54.20
50738;DHT22;36703;48.154;17.126;2023-05-14T03:47:51;16.10;54.10
50738;DHT22;36703;48.154;17.126;2023-05-14T03:51:53;16.10;54.10
50738;DHT22;36703;48.154;17.126;2023-05-14T03:55:54;16.10;54.10
50738;DHT22;36703;48.154;17.126;2023-05-14T03:59:56;16.10;54.00
50738;DHT22;36703;48.154;17.126;2023-05-14T04:03:58;16.00;54.00
50738;DHT22;36703;48.154;17.126;2023-05-14T04:08:00;16.00;53.90
50738;DHT22;36703;48.154;17.126;2023-05-14T04:12:02;16.00;53.90
50738;DHT22;36703;48.154;17.126;2023-05-14T04:16:04;16.00;53.90
50738;DHT22;36703;48.154;17.126;2023-05-14T04:20:06;16.00;53.90
50738;DHT22;36703;48.154;17.126;2023-05-14T04:24:08;16.10;53.80
50738;DHT22;36703;48.154;17.126;2023-05-14T04:28:09;16.10;53.80
50738;DHT22;36703;48.154;17.126;2023-05-14T04:32:11;16.10;53.80
50738;DHT22;36703;48.154;17.126;2023-05-14T04:36:13;16.10;53.70
50738;DHT22;36703;48.154;17.126;2023-05-14T04:40:14;16.00;53.70
50738;DHT22;36703;48.154;17.126;2023-05-14T04:44:19;16.00;53.80
50738;DHT22;36703;48.154;17.126;2023-05-14T04:48:20;16.00;53.90
50738;DHT22;36703;48.154;17.126;2023-05-14T04:52:23;16.00;54.00
50738;DHT22;36703;48.154;17.126;2023-05-14T04:56:24;16.00;54.00
50738;DHT22;36703;48.154;17.126;2023-05-14T05:00:26;16.00;54.20
50738;DHT22;36703;48.154;17.126;2023-05-14T05:04:28;16.00;54.30
50738;DHT22;36703;48.154;17.126;2023-05-14T05:08:30;16.00;54.50
50738;DHT22;36703;48.154;17.126;2023-05-14T05:12:31;16.00;54.60
50738;DHT22;36703;48.154;17.126;2023-05-14T05:16:35;16.00;54.80
50738;DHT22;36703;48.154;17.126;2023-05-14T05:20:37;15.90;54.90
50738;DHT22;36703;48.154;17.126;2023-05-14T05:24:38;15.90;55.00
50738;DHT22;36703;48.154;17.126;2023-05-14T05:28:40;15.90;55.10
50738;DHT22;36703;48.154;17.126;2023-05-14T05:32:41;15.90;55.30
50738;DHT22;36703;48.154;17.126;2023-05-14T05:36:43;15.80;55.50
50738;DHT22;36703;48.154;17.126;2023-05-14T05:40:44;15.90;55.70
50738;DHT22;36703;48.154;17.126;2023-05-14T05:44:46;15.80;55.90
50738;DHT22;36703;48.154;17.126;2023-05-14T05:48:48;15.80;56.00
50738;DHT22;36703;48.154;17.126;2023-05-14T05:52:49;15.80;56.10
50738;DHT22;36703;48.154;17.126;2023-05-14T05:56:51;15.70;56.30
50738;DHT22;36703;48.154;17.126;2023-05-14T06:00:52;15.60;56.40
50738;DHT22;36703;48.154;17.126;2023-05-14T06:04:55;15.60;56.60
50738;DHT22;36703;48.154;17.126;2023-05-14T06:08:56;15.60;56.80
50738;DHT22;36703;48.154;17.126;2023-05-14T06:12:58;15.70;57.50
50738;DHT22;36703;48.154;17.126;2023-05-14T06:16:59;15.60;57.00
50738;DHT22;36703;48.154;17.126;2023-05-14T06:21:01;15.60;57.10
50738;DHT22;36703;48.154;17.126;2023-05-14T06:25:03;15.60;57.30
50738;DHT22;36703;48.154;17.126;2023-05-14T06:29:04;15.60;57.40
50738;DHT22;36703;48.154;17.126;2023-05-14T06:33:06;15.60;57.40
50738;DHT22;36703;48.154;17.126;2023-05-14T06:37:08;15.60;57.40
50738;DHT22;36703;48.154;17.126;2023-05-14T06:41:10;15.60;57.40
50738;DHT22;36703;48.154;17.126;2023-05-14T06:45:12;15.60;57.40
50738;DHT22;36703;48.154;17.126;2023-05-14T06:49:13;15.60;57.50
50738;DHT22;36703;48.154;17.126;2023-05-14T06:53:15;15.60;57.50
50738;DHT22;36703;48.154;17.126;2023-05-14T06:57:17;15.60;57.50
50738;DHT22;36703;48.154;17.126;2023-05-14T07:01:18;15.60;57.60
50738;DHT22;36703;48.154;17.126;2023-05-14T07:05:20;15.60;57.50
50738;DHT22;36703;48.154;17.126;2023-05-14T07:09:21;15.60;57.50
50738;DHT22;36703;48.154;17.126;2023-05-14T07:13:23;15.60;57.50
50738;DHT22;36703;48.154;17.126;2023-05-14T07:17:24;15.60;57.60
50738;DHT22;36703;48.154;17.126;2023-05-14T07:21:26;15.70;57.60
50738;DHT22;36703;48.154;17.126;2023-05-14T07:25:28;15.70;57.60
50738;DHT22;36703;48.154;17.126;2023-05-14T07:29:29;15.70;57.60
50738;DHT22;36703;48.154;17.126;2023-05-14T07:33:31;15.70;58.20
50738;DHT22;36703;48.154;17.126;2023-05-14T07:37:33;15.70;57.80
50738;DHT22;36703;48.154;17.126;2023-05-14T07:41:34;15.70;57.90
50738;DHT22;36703;48.154;17.126;2023-05-14T07:45:36;15.60;58.20
50738;DHT22;36703;48.154;17.126;2023-05-14T07:49:39;15.60;58.10
50738;DHT22;36703;48.154;17.126;2023-05-14T07:53:40;15.60;58.30
50738;DHT22;36703;48.154;17.126;2023-05-14T07:57:42;15.50;58.40
50738;DHT22;36703;48.154;17.126;2023-05-14T08:01:43;15.60;58.40
50738;DHT22;36703;48.154;17.126;2023-05-14T08:05:45;15.60;58.50
50738;DHT22;36703;48.154;17.126;2023-05-14T08:09:47;15.60;58.60
50738;DHT22;36703;48.154;17.126;2023-05-14T08:13:48;15.60;58.60
50738;DHT22;36703;48.154;17.126;2023-05-14T08:17:50;15.70;58.60
50738;DHT22;36703;48.154;17.126;2023-05-14T08:21:51;15.70;58.70
50738;DHT22;36703;48.154;17.126;2023-05-14T08:25:53;15.70;58.80
50738;DHT22;36703;48.154;17.126;2023-05-14T08:29:54;15.70;58.90
50738;DHT22;36703;48.154;17.126;2023-05-14T08:33:56;15.70;58.90
50738;DHT22;36703;48.154;17.126;2023-05-14T08:37:58;15.60;59.00
50738;DHT22;36703;48.154;17.126;2023-05-14T08:42:01;15.70;59.30
50738;DHT22;36703;48.154;17.126;2023-05-14T08:46:04;15.70;59.40
50738;DHT22;36703;48.154;17.126;2023-05-14T08:50:07;15.70;59.50
50738;DHT22;36703;48.154;17.126;2023-05-14T08:54:09;15.70;59.50
50738;DHT22;36703;48.154;17.126;2023-05-14T08:58:14;15.80;59.70
50738;DHT22;36703;48.154;17.126;2023-05-14T09:02:16;15.80;59.60
50738;DHT22;36703;48.154;17.126;2023-05-14T09:06:21;15.80;59.60
50738;DHT22;36703;48.154;17.126;2023-05-14T09:10:24;15.80;59.60
50738;DHT22;36703;48.154;17.126;2023-05-14T09:14:26;15.80;59.60
50738;DHT22;36703;48.154;17.126;2023-05-14T09:18:27;15.90;59.80
50738;DHT22;36703;48.154;17.126;2023-05-14T09:22:29;15.80;59.90
50738;DHT22;36703;48.154;17.126;2023-05-14T09:26:34;15.80;60.00
50738;DHT22;36703;48.154;17.126;2023-05-14T09:30:36;15.80;60.00
50738;DHT22;36703;48.154;17.126;2023-05-14T09:34:38;15.80;60.10
50738;DHT22;36703;48.154;17.126;2023-05-14T09:38:40;15.80;60.20
50738;DHT22;36703;48.154;17.126;2023-05-14T09:42:42;15.80;60.20
50738;DHT22;36703;48.154;17.126;2023-05-14T09:46:44;15.90;60.20
50738;DHT22;36703;48.154;17.126;2023-05-14T09:50:46;15.90;60.30
50738;DHT22;36703;48.154;17.126;2023-05-14T09:54:50;15.90;60.30
50738;DHT22;36703;48.154;17.126;2023-05-14T09:58:52;15.90;60.40
50738;DHT22;36703;48.154;17.126;2023-05-14T10:02:56;15.90;60.50
50738;DHT22;36703;48.154;17.126;2023-05-14T10:06:59;15.90;61.30
50738;DHT22;36703;48.154;17.126;2023-05-14T10:11:05;16.00;60.60
50738;DHT22;36703;48.154;17.126;2023-05-14T10:15:16;16.00;60.80
50738;DHT22;36703;48.154;17.126;2023-05-14T10:19:23;16.10;60.90
50738;DHT22;36703;48.154;17.126;2023-05-14T10:23:25;16.10;60.80
50738;DHT22;36703;48.154;17.126;2023-05-14T10:27:27;16.20;61.70
50738;DHT22;36703;48.154;17.126;2023-05-14T10:31:49;16.20;61.00
50738;DHT22;36703;48.154;17.126;2023-05-14T10:36:03;16.20;61.30
50738;DHT22;36703;48.154;17.126;2023-05-14T10:40:06;16.30;61.30
50738;DHT22;36703;48.154;17.126;2023-05-14T10:44:08;16.30;61.30
50738;DHT22;36703;48.154;17.126;2023-05-14T10:48:10;16.30;61.40
50738;DHT22;36703;48.154;17.126;2023-05-14T10:52:12;16.60;62.40
50738;DHT22;36703;48.154;17.126;2023-05-14T10:56:16;16.40;61.70
50738;DHT22;36703;48.154;17.126;2023-05-14T11:00:19;16.50;61.70
50738;DHT22;36703;48.154;17.126;2023-05-14T11:04:23;16.30;61.50
50738;DHT22;36703;48.154;17.126;2023-05-14T11:08:25;16.40;61.50
50738;DHT22;36703;48.154;17.126;2023-05-14T11:12:28;16.50;61.60
50738;DHT22;36703;48.154;17.126;2023-05-14T11:16:30;16.50;61.70
50738;DHT22;36703;48.154;17.126;2023-05-14T11:20:31;16.50;61.70
50738;DHT22;36703;48.154;17.126;2023-05-14T11:24:33;16.50;62.60
50738;DHT22;36703;48.154;17.126;2023-05-14T11:28:34;16.50;61.80
50738;DHT22;36703;48.154;17.126;2023-05-14T11:32:36;16.50;61.90
50738;DHT22;36703;48.154;17.126;2023-05-14T11:36:38;16.50;61.70
50738;DHT22;36703;48.154;17.126;2023-05-14T11:40:39;16.60;62.50
50738;DHT22;36703;48.154;17.126;2023-05-14T11:44:41;16.50;61.70
50738;DHT22;36703;48.154;17.126;2023-05-14T11:48:44;16.40;61.70
50738;DHT22;36703;48.154;17.126;2023-05-14T11:52:46;16.60;61.80
50738;DHT22;36703;48.154;17.126;2023-05-14T11:56:50;16.70;61.90
50738;DHT22;36703;48.154;17.126;2023-05-14T12:00:53;16.60;61.80
50738;DHT22;36703;48.154;17.126;2023-05-14T12:04:56;16.60;61.90
50738;DHT22;36703;48.154;17.126;2023-05-14T12:08:58;16.60;61.90
50738;DHT22;36703;48.154;17.126;2023-05-14T12:13:06;16.60;62.10
50738;DHT22;36703;48.154;17.126;2023-05-14T12:17:18;16.70;62.20
50738;DHT22;36703;48.154;17.126;2023-05-14T12:21:20;16.70;62.40
50738;DHT22;36703;48.154;17.126;2023-05-14T12:25:24;16.80;62.40
50738;DHT22;36703;48.154;17.126;2023-05-14T12:29:26;16.80;62.40
50738;DHT22;36703;48.154;17.126;2023-05-14T12:33:28;16.80;62.40
50738;DHT22;36703;48.154;17.126;2023-05-14T12:37:29;16.80;62.50
50738;DHT22;36703;48.154;17.126;2023-05-14T12:41:31;16.80;62.60
50738;DHT22;36703;48.154;17.126;2023-05-14T12:45:33;16.80;62.50
50738;DHT22;36703;48.154;17.126;2023-05-14T12:49:34;16.90;62.50
50738;DHT22;36703;48.154;17.126;2023-05-14T12:53:36;16.90;62.60
50738;DHT22;36703;48.154;17.126;2023-05-14T12:57:38;16.80;62.60
50738;DHT22;36703;48.154;17.126;2023-05-14T13:01:40;17.20;62.50
50738;DHT22;36703;48.154;17.126;2023-05-14T13:05:42;17.20;62.20
50738;DHT22;36703;48.154;17.126;2023-05-14T13:09:43;17.10;62.20
50738;DHT22;36703;48.154;17.126;2023-05-14T13:13:45;17.20;62.20
50738;DHT22;36703;48.154;17.126;2023-05-14T13:17:47;17.20;62.20
50738;DHT22;36703;48.154;17.126;2023-05-14T13:21:49;17.20;62.20
50738;DHT22;36703;48.154;17.126;2023-05-14T13:25:50;17.20;62.20
50738;DHT22;36703;48.154;17.126;2023-05-14T13:29:52;17.20;62.10
50738;DHT22;36703;48.154;17.126;2023-05-14T13:33:53;17.20;61.90
50738;DHT22;36703;48.154;17.126;2023-05-14T13:37:55;17.20;61.90
50738;DHT22;36703;48.154;17.126;2023-05-14T13:41:57;17.50;62.00
50738;DHT22;36703;48.154;17.126;2023-05-14T13:45:59;17.50;62.00
50738;DHT22;36703;48.154;17.126;2023-05-14T13:50:01;17.10;61.80
50738;DHT22;36703;48.154;17.126;2023-05-14T13:54:02;17.10;61.70
50738;DHT22;36703;48.154;17.126;2023-05-14T13:58:04;17.10;61.80
50738;DHT22;36703;48.154;17.126;2023-05-14T14:02:07;17.00;61.90
50738;DHT22;36703;48.154;17.126;2023-05-14T14:06:08;17.00;62.10
50738;DHT22;36703;48.154;17.126;2023-05-14T14:10:11;17.00;62.20
50738;DHT22;36703;48.154;17.126;2023-05-14T14:14:13;17.00;62.10
50738;DHT22;36703;48.154;17.126;2023-05-14T14:18:14;17.00;62.00
50738;DHT22;36703;48.154;17.126;2023-05-14T14:22:16;17.00;62.00
50738;DHT22;36703;48.154;17.126;2023-05-14T14:26:17;16.90;62.00
50738;DHT22;36703;48.154;17.126;2023-05-14T14:30:19;17.00;62.10
50738;DHT22;36703;48.154;17.126;2023-05-14T14:34:20;17.00;62.20
50738;DHT22;36703;48.154;17.126;2023-05-14T14:38:23;17.00;62.40
50738;DHT22;36703;48.154;17.126;2023-05-14T14:42:24;17.00;62.40
50738;DHT22;36703;48.154;17.126;2023-05-14T14:46:26;17.00;62.50
50738;DHT22;36703;48.154;17.126;2023-05-14T14:50:28;17.10;62.70
50738;DHT22;36703;48.154;17.126;2023-05-14T14:54:29;17.20;62.70
50738;DHT22;36703;48.154;17.126;2023-05-14T14:58:31;17.30;62.70
50738;DHT22;36703;48.154;17.126;2023-05-14T15:02:32;17.40;62.70
50738;DHT22;36703;48.154;17.126;2023-05-14T15:06:34;17.40;62.50
50738;DHT22;36703;48.154;17.126;2023-05-14T15:10:36;17.30;62.30
50738;DHT22;36703;48.154;17.126;2023-05-14T15:14:38;17.00;62.10
50738;DHT22;36703;48.154;17.126;2023-05-14T15:18:40;17.20;62.50
50738;DHT22;36703;48.154;17.126;2023-05-14T15:22:41;17.40;62.90
50738;DHT22;36703;48.154;17.126;2023-05-14T15:26:43;17.20;62.80
50738;DHT22;36703;48.154;17.126;2023-05-14T15:30:47;17.20;62.80
50738;DHT22;36703;48.154;17.126;2023-05-14T15:34:48;17.20;62.80
50738;DHT22;36703;48.154;17.126;2023-05-14T15:38:50;17.00;62.80
50738;DHT22;36703;48.154;17.126;2023-05-14T15:42:51;17.20;62.80
50738;DHT22;36703;48.154;17.126;2023-05-14T15:46:53;17.20;62.80
50738;DHT22;36703;48.154;17.126;2023-05-14T15:50:54;17.10;62.70
50738;DHT22;36703;48.154;17.126;2023-05-14T15:54:56;16.90;62.60
50738;DHT22;36703;48.154;17.126;2023-05-14T15:58:59;17.10;62.90
50738;DHT22;36703;48.154;17.126;2023-05-14T16:03:01;17.10;62.90
50738;DHT22;36703;48.154;17.126;2023-05-14T16:07:06;17.00;62.80
50738;DHT22;36703;48.154;17.126;2023-05-14T16:11:09;17.10;63.10
50738;DHT22;36703;48.154;17.126;2023-05-14T16:15:11;17.10;63.10
50738;DHT22;36703;48.154;17.126;2023-05-14T16:19:12;17.10;62.90
50738;DHT22;36703;48.154;17.126;2023-05-14T16:23:14;17.00;63.00
50738;DHT22;36703;48.154;17.126;2023-05-14T16:27:16;16.70;62.80
50738;DHT22;36703;48.154;17.126;2023-05-14T16:31:19;17.00;63.20
50738;DHT22;36703;48.154;17.126;2023-05-14T16:35:20;16.90;63.20
50738;DHT22;36703;48.154;17.126;2023-05-14T16:39:22;16.90;63.10
50738;DHT22;36703;48.154;17.126;2023-05-14T16:43:23;16.90;63.30
50738;DHT22;36703;48.154;17.126;2023-05-14T16:47:25;17.20;63.40
50738;DHT22;36703;48.154;17.126;2023-05-14T16:51:27;16.90;63.40
50738;DHT22;36703;48.154;17.126;2023-05-14T16:55:28;16.90;63.30
50738;DHT22;36703;48.154;17.126;2023-05-14T16:59:30;16.90;63.40
50738;DHT22;36703;48.154;17.126;2023-05-14T17:03:31;16.80;63.50
50738;DHT22;36703;48.154;17.126;2023-05-14T17:07:33;16.80;63.50
50738;DHT22;36703;48.154;17.126;2023-05-14T17:11:34;16.90;63.60
50738;DHT22;36703;48.154;17.126;2023-05-14T17:15:36;16.90;63.60
50738;DHT22;36703;48.154;17.126;2023-05-14T17:19:39;16.90;63.40
50738;DHT22;36703;48.154;17.126;2023-05-14T17:23:40;17.00;63.50
50738;DHT22;36703;48.154;17.126;2023-05-14T17:27:45;16.90;63.50
50738;DHT22;36703;48.154;17.126;2023-05-14T17:31:46;17.00;63.80
50738;DHT22;36703;48.154;17.126;2023-05-14T17:35:48;16.90;63.70
50738;DHT22;36703;48.154;17.126;2023-05-14T17:39:50;17.10;63.80
50738;DHT22;36703;48.154;17.126;2023-05-14T17:43:52;17.00;63.70
50738;DHT22;36703;48.154;17.126;2023-05-14T17:47:53;17.10;63.80
50738;DHT22;36703;48.154;17.126;2023-05-14T17:51:55;17.00;63.70
50738;DHT22;36703;48.154;17.126;2023-05-14T17:55:57;17.20;64.00
50738;DHT22;36703;48.154;17.126;2023-05-14T17:59:58;17.00;64.00
50738;DHT22;36703;48.154;17.126;2023-05-14T18:04:00;16.90;64.00
50738;DHT22;36703;48.154;17.126;2023-05-14T18:08:01;17.10;64.00
50738;DHT22;36703;48.154;17.126;2023-05-14T18:12:03;17.10;64.10
50738;DHT22;36703;48.154;17.126;2023-05-14T18:16:05;17.00;64.10
50738;DHT22;36703;48.154;17.126;2023-05-14T18:20:07;16.90;64.20
50738;DHT22;36703;48.154;17.126;2023-05-14T18:24:09;16.90;64.30
50738;DHT22;36703;48.154;17.126;2023-05-14T18:28:10;16.90;64.40
50738;DHT22;36703;48.154;17.126;2023-05-14T18:32:12;17.10;64.70
50738;DHT22;36703;48.154;17.126;2023-05-14T18:36:13;16.90;64.70
50738;DHT22;36703;48.154;17.126;2023-05-14T18:40:15;16.90;64.70
50738;DHT22;36703;48.154;17.126;2023-05-14T18:44:17;17.00;64.70
50738;DHT22;36703;48.154;17.126;2023-05-14T18:48:18;17.10;64.70
50738;DHT22;36703;48.154;17.126;2023-05-14T18:52:20;17.10;64.70
50738;DHT22;36703;48.154;17.126;2023-05-14T18:56:26;17.20;64.60
50738;DHT22;36703;48.154;17.126;2023-05-14T19:00:27;17.10;64.40
50738;DHT22;36703;48.154;17.126;2023-05-14T19:04:29;17.10;64.50
50738;DHT22;36703;48.154;17.126;2023-05-14T19:08:31;17.10;64.60
50738;DHT22;36703;48.154;17.126;2023-05-14T19:12:32;17.00;64.70
50738;DHT22;36703;48.154;17.126;2023-05-14T19:16:34;17.00;64.70
50738;DHT22;36703;48.154;17.126;2023-05-14T19:20:35;17.10;64.80
50738;DHT22;36703;48.154;17.126;2023-05-14T19:24:37;17.10;64.80
50738;DHT22;36703;48.154;17.126;2023-05-14T19:28:38;17.10;64.80
50738;DHT22;36703;48.154;17.126;2023-05-14T19:32:40;17.10;64.80
50738;DHT22;36703;48.154;17.126;2023-05-14T19:36:42;17.10;64.80
50738;DHT22;36703;48.154;17.126;2023-05-14T19:40:43;16.80;64.60
50738;DHT22;36703;48.154;17.126;2023-05-14T19:44:45;16.90;64.70
50738;DHT22;36703;48.154;17.126;2023-05-14T19:48:46;16.90;64.80
50738;DHT22;36703;48.154;17.126;2023-05-14T19:52:48;16.90;64.80
50738;DHT22;36703;48.154;17.126;2023-05-14T19:56:50;16.90;64.90
50738;DHT22;36703;48.154;17.126;2023-05-14T20:00:51;16.90;64.80
50738;DHT22;36703;48.154;17.126;2023-05-14T20:04:56;17.00;65.50
50738;DHT22;36703;48.154;17.126;2023-05-14T20:08:58;17.00;64.80
50738;DHT22;36703;48.154;17.126;2023-05-14T20:13:01;17.10;64.80
50738;DHT22;36703;48.154;17.126;2023-05-14T20:17:02;17.20;64.80
50738;DHT22;36703;48.154;17.126;2023-05-14T20:21:04;17.20;64.60
50738;DHT22;36703;48.154;17.126;2023-05-14T20:25:06;17.20;64.60
50738;DHT22;36703;48.154;17.126;2023-05-14T20:29:08;17.20;64.60
50738;DHT22;36703;48.154;17.126;2023-05-14T20:33:11;17.20;64.40
50738;DHT22;36703;48.154;17.126;2023-05-14T20:37:13;17.10;64.40
50738;DHT22;36703;48.154;17.126;2023-05-14T20:41:15;17.10;64.60
50738;DHT22;36703;48.154;17.126;2023-05-14T20:45:16;17.10;64.70
50738;DHT22;36703;48.154;17.126;2023-05-14T20:49:18;17.10;64.60
50738;DHT22;36703;48.154;17.126;2023-05-14T20:53:20;17.10;64.50
50738;DHT22;36703;48.154;17.126;2023-05-14T20:57:21;16.90;64.50
50738;DHT22;36703;48.154;17.126;2023-05-14T21:01:23;17.10;64.70
50738;DHT22;36703;48.154;17.126;2023-05-14T21:05:24;17.20;64.50
50738;DHT22;36703;48.154;17.126;2023-05-14T21:09:26;17.20;64.30
50738;DHT22;36703;48.154;17.126;2023-05-14T21:13:27;17.20;64.40
50738;DHT22;36703;48.154;17.126;2023-05-14T21:17:29;17.20;64.30
50738;DHT22;36703;48.154;17.126;2023-05-14T21:21:31;17.30;64.60
50738;DHT22;36703;48.154;17.126;2023-05-14T21:25:33;17.20;64.40
50738;DHT22;36703;48.154;17.126;2023-05-14T21:29:34;17.30;64.40
50738;DHT22;36703;48.154;17.126;2023-05-14T21:33:36;17.30;64.50
50738;DHT22;36703;48.154;17.126;2023-05-14T21:37:38;17.30;64.40
50738;DHT22;36703;48.154;17.126;2023-05-14T21:41:40;17.30;64.30
50738;DHT22;36703;48.154;17.126;2023-05-14T21:45:43;17.40;64.40
50738;DHT22;36703;48.154;17.126;2023-05-14T21:49:46;17.40;64.40
50738;DHT22;36703;48.154;17.126;2023-05-14T21:53:48;17.20;64.20
50738;DHT22;36703;48.154;17.126;2023-05-14T21:57:49;17.40;64.30
50738;DHT22;36703;48.154;17.126;2023-05-14T22:01:51;17.40;64.30
50738;DHT22;36703;48.154;17.126;2023-05-14T22:05:53;17.40;64.30
50738;DHT22;36703;48.154;17.126;2023-05-14T22:09:54;17.40;64.40
50738;DHT22;36703;48.154;17.126;2023-05-14T22:13:56;17.40;64.30
50738;DHT22;36703;48.154;17.126;2023-05-14T22:17:57;17.40;64.30
50738;DHT22;36703;48.154;17.126;2023-05-14T22:21:59;17.40;64.40
50738;DHT22;36703;48.154;17.126;2023-05-14T22:26:00;17.40;64.40
50738;DHT22;36703;48.154;17.126;2023-05-14T22:30:02;17.40;64.50
50738;DHT22;36703;48.154;17.126;2023-05-14T22:34:04;17.30;64.20
50738;DHT22;36703;48.154;17.126;2023-05-14T22:38:05;17.30;64.40
50738;DHT22;36703;48.154;17.126;2023-05-14T22:42:07;17.20;64.50
50738;DHT22;36703;48.154;17.126;2023-05-14T22:46:09;17.10;64.80
50738;DHT22;36703;48.154;17.126;2023-05-14T22:50:10;17.10;64.90
50738;DHT22;36703;48.154;17.126;2023-05-14T22:54:12;17.10;65.10
50738;DHT22;36703;48.154;17.126;2023-05-14T22:58:14;17.00;65.10
50738;DHT22;36703;48.154;17.126;2023-05-14T23:02:15;17.00;65.10
50738;DHT22;36703;48.154;17.126;2023-05-14T23:06:17;17.00;65.10
50738;DHT22;36703;48.154;17.126;2023-05-14T23:10:19;17.10;65.20
50738;DHT22;36703;48.154;17.126;2023-05-14T23:14:20;17.00;65.10
50738;DHT22;36703;48.154;17.126;2023-05-14T23:18:22;17.00;65.00
50738;DHT22;36703;48.154;17.126;2023-05-14T23:22:24;17.10;65.10
50738;DHT22;36703;48.154;17.126;2023-05-14T23:26:26;17.10;65.00
50738;DHT22;36703;48.154;17.126;2023-05-14T23:30:27;17.10;65.10
50738;DHT22;36703;48.154;17.126;2023-05-14T23:34:29;17.10;64.90
50738;DHT22;36703;48.154;17.126;2023-05-14T23:38:31;17.10;64.80
50738;DHT22;36703;48.154;17.126;2023-05-14T23:42:32;17.10;64.90
50738;DHT22;36703;48.154;17.126;2023-05-14T23:46:34;17.10;64.80
50738;DHT22;36703;48.154;17.126;2023-05-14T23:50:35;17.10;64.70
50738;DHT22;36703;48.154;17.126;2023-05-14T23:54:38;17.10;64.70
50738;DHT22;36703;48.154;17.126;2023-05-14T23:58:39;17.00;64.70
